Terminal Aerodrome Forecast
Issued by NWS

Home | Current Version | Previous Version | Graphics & Text | Print | Product List | Glossary On
Versions: 1 2 3 4 5 6 7 8 9 10 11 12 13 14 15 16 17
000
FTUS43 KABR 281400 AAA
TAFMBG
TAF AMD
KMBG 281413Z 2814/2912 04008KT P6SM OVC090
      TEMPO 2815/2816 BKN015
     FM281600 05010KT P6SM OVC015
     FM282200 06013KT 3SM -SN BR OVC040
     FM290700 05014KT P6SM BKN100=

USA.gov is the U.S. government's official web portal to all federal, state and local government web resources and services.